Weather observations for the past three days for
Florence - Florence Regional Airport
Metric (Imperial)
Date Time (edt) Wind (kph) Vis. (km) Weather Sky Cond. Temperature (ºC) Relative Humidity Wind Chill (°C) Heat Index (°C) Pressure Precipitation (cm)
Air Dwpt 6 hour altimeter (cm) sea level (mb) 1 hr 3 hr 6 hr
Max. Min.
06 04:53 S 7 16.09 Fair CLR 15.6 13.3 86% 76.2 1015.5
06 03:53 S 7 16.09 Fair CLR 15.6 12.8 84% 76.17 1015.3
06 02:53 S 6 16.09 Fair CLR 16.7 12.8 78% 76.17 1015.3
06 01:53 Calm 16.09 Fair CLR 17.8 12.8 22.8 16.7 73% 76.17 1015.4
06 00:53 S 9 16.09 Fair CLR 17.8 12.8 73% 76.23 1016.0
05 23:53 S 9 16.09 Fair CLR 17.2 12.8 76% 76.25 1016.2
05 22:53 S 11 16.09 Fair CLR 18.9 12.2 65% 76.28 1016.7
05 21:53 S 19 16.09 Fair CLR 20 12.2 61% 76.23 1015.9
05 20:53 S 19 16.09 Fair CLR 21.1 12.8 59% 76.17 1015.4
05 19:53 S 17 16.09 Fair CLR 22.8 11.7 27.8 22.8 50% 76.15 1014.9
05 18:53 S 19 16.09 Fair CLR 25.6 11.7 42% 26 76.12 1014.6
05 17:53 S 19 16.09 Mostly Cloudy BKN070 27.2 10.6 35% 27 76.12 1014.7
05 16:53 S 17 16.09 A Few Clouds FEW075 27.2 9.4 33% 27 76.12 1014.8
05 15:53 S 20 G 30 16.09 A Few Clouds FEW065 27.2 10 34% 27 76.2 1015.6
05 14:53 Vrbl 7 G 37 16.09 A Few Clouds FEW060 27.2 10.6 35% 27 76.25 1016.2
05 13:53 Vrbl 11 16.09 Partly Cloudy SCT055 25.6 11.1 26.7 13.3 40% 26 76.28 1016.7
05 12:53 SE 7 16.09 A Few Clouds FEW050 25.6 11.7 42% 26 76.33 1017.5
05 11:53 SE 17 16.09 Fair CLR 23.9 11.7 46% 25 76.38 1018.0
05 10:53 SW 15 16.09 Fair CLR 22.8 12.2 51% 76.38 1018.2
05 09:53 SW 17 16.09 Fair CLR 21.1 12.8 59% 76.38 1018.0
05 08:53 S 11 16.09 Fair CLR 18.3 12.8 70% 76.38 1018.0
05 07:53 Calm 16.09 Fair CLR 13.3 10.6 13.3 8.9 84% 76.35 1017.8
05 06:53 Calm 16.09 Fair CLR 8.9 7.2 89% 76.33 1017.4
05 05:53 Calm 16.09 Fair CLR 9.4 7.8 90% 76.28 1016.7
05 04:53 Calm 16.09 Fair CLR 10.6 8.9 89% 76.25 1016.4
05 03:53 Calm 16.09 Fair CLR 10 8.3 89% 76.23 1015.9
05 02:53 S 6 16.09 Fair CLR 11.1 8.9 86% 76.23 1016.1
05 01:53 Calm 16.09 Fair CLR 11.7 8.9 22.2 11.7 83% 76.25 1016.5
05 00:53 S 7 16.09 Fair CLR 14.4 9.4 72% 76.3 1016.9
04 23:53 S 7 16.09 Fair CLR 15.6 8.9 65% 76.28 1016.8
04 22:53 S 11 16.09 Fair CLR 17.2 8.9 58% 76.3 1016.9
04 21:53 S 11 16.09 Fair CLR 18.9 9.4 54% 76.28 1016.7
04 20:53 S 22 G 37 16.09 Fair CLR 20.6 9.4 49% 76.2 1015.7
04 19:53 Calm 16.09 Fair CLR 22.2 6.7 26.7 22.2 37% 76.15 1015.0
04 18:53 Calm 16.09 Fair CLR 24.4 6.1 31% 25 76.12 1014.8
04 17:53 Calm 16.09 Fair CLR 25.6 5.6 28% 26 76.12 1014.7
04 16:53 S 13 16.09 Fair CLR 26.1 5.6 27% 26 76.12 1014.7
04 15:53 S 15 16.09 Fair CLR 25.6 5.6 28% 26 76.17 1015.4
04 14:53 SW 13 16.09 Fair CLR 25.6 5.6 28% 26 76.23 1016.0
04 13:53 Calm 16.09 Fair CLR 24.4 6.1 25 11.7 31% 25 76.28 1016.6
04 12:53 Calm 16.09 Fair CLR 23.9 6.1 32% 25 76.3 1017.2
04 11:53 Calm 16.09 Fair CLR 22.8 6.1 34% 76.35 1017.7
04 10:53 SW 7 16.09 Fair CLR 21.1 8.3 44% 76.4 1018.3
04 09:53 Vrbl 9 16.09 Fair CLR 18.9 9.4 54% 76.38 1018.2
04 08:53 W 13 16.09 Fair CLR 15.6 10.6 72% 76.4 1018.3
04 07:53 S 7 14.48 Fair CLR 11.7 10 11.7 7.8 89% 76.38 1018.0
04 06:53 Calm 16.09 Fair CLR 8.3 7.2 93% 76.38 1018.2
04 05:53 Calm 16.09 Fair CLR 9.4 8.3 93% 76.35 1017.8
04 04:53 Calm 16.09 Fair CLR 9.4 8.3 93% 76.35 1017.6
04 03:53 S 9 16.09 Fair CLR 10 8.9 93% 9 76.35 1017.7
04 02:53 Calm 16.09 Fair CLR 9.4 8.3 93% 76.38 1018.1
04 01:53 Calm 16.09 Fair CLR 11.1 8.9 17.8 11.1 86% 76.4 1018.4
04 00:53 S 7 16.09 Fair CLR 12.2 8.9 80% 76.4 1018.5
03 23:53 S 11 16.09 Fair CLR 12.8 8.9 77% 76.4 1018.3
03 22:53 S 11 16.09 Fair CLR 12.8 8.3 74% 76.4 1018.2
03 21:53 Calm 16.09 Fair CLR 12.2 8.3 77% 76.35 1017.7
03 20:53 S 6 16.09 Fair CLR 14.4 7.8 65% 76.3 1017.0
03 19:53 SW 7 16.09 Fair CLR 18.3 5 21.1 18.3 42% 76.28 1016.5
03 18:53 W 11 16.09 Fair CLR 20 3.3 33% 76.25 1016.5
03 17:53 W 19 16.09 Fair CLR 21.1 3.3 31% 76.28 1016.6
03 16:53 W 15 16.09 A Few Clouds FEW070 20.6 3.9 33% 76.28 1016.6
03 15:53 Calm 16.09 Partly Cloudy SCT065 20 3.9 35% 76.35 1017.5
03 14:53 W 20 G 43 16.09 Fair CLR 19.4 3.9 36% 76.4 1018.4
03 13:53 W 17 G 26 16.09 Fair CLR 18.9 4.4 18.9 9.4 39% 76.45 1019.2
03 12:53 N 17 G 28 16.09 Fair CLR 17.8 3.9 40% 76.53 1019.9
03 11:53 NE 13 16.09 Fair CLR 16.1 3.3 43% 76.58 1020.8
03 10:53 NE 13 16.09 Fair CLR 15 3.3 46% 76.58 1020.7
03 09:53 N 19 16.09 Fair CLR 13.9 4.4 53% 76.53 1020.0
03 08:53 N 13 16.09 Fair CLR 12.2 6.1 67% 76.53 1020.0
03 07:53 N 11 16.09 Fair CLR 9.4 6.7 9.4 3.9 83% 8 76.48 1019.4
03 06:53 N 11 16.09 Fair CLR 7.2 6.1 93% 5 76.4 1018.6
03 05:53 Calm 0.40 Fog VV002 4.4 4.4 100% 76.35 1017.7
Date Time (edt) Wind (kph) Vis. (km) Weather Sky Cond. Air Dwpt Max. Min. Relative Humidity Wind Chill (°C) Heat Index (°C) altimeter (cm) sea level (mb) 1 hr 3 hr 6 hr
6 hour
Temperature (ºC) Pressure Precipitation (cm)